createdAt,value
2018-04-07T00:01:08.264Z,8.55
2018-04-07T00:03:34.552Z,8.53
2018-04-07T00:06:01.550Z,8.50
2018-04-07T00:08:27.869Z,8.57
2018-04-07T00:10:54.145Z,8.62
2018-04-07T00:13:20.418Z,8.49
2018-04-07T00:15:46.780Z,8.58
2018-04-07T00:18:16.809Z,8.46
2018-04-07T00:20:43.087Z,8.16
2018-04-07T00:23:09.595Z,7.85
2018-04-07T00:25:35.956Z,8.00
2018-04-07T00:28:02.228Z,7.84
2018-04-07T00:30:28.512Z,7.96
2018-04-07T00:32:54.836Z,8.05
2018-04-07T00:35:21.133Z,8.08
2018-04-07T00:37:47.529Z,8.18
2018-04-07T00:40:13.849Z,8.19
2018-04-07T00:42:40.164Z,8.23
2018-04-07T00:45:06.666Z,8.20
2018-04-07T00:47:32.992Z,8.13
2018-04-07T00:49:59.331Z,8.03
2018-04-07T00:52:25.669Z,8.09
2018-04-07T00:54:52.005Z,8.18
2018-04-07T00:57:18.330Z,8.17
2018-04-07T00:59:44.669Z,8.16
2018-04-07T01:02:11.026Z,8.05
2018-04-07T01:04:40.292Z,8.03
2018-04-07T01:07:06.567Z,8.10
2018-04-07T01:09:32.885Z,8.04
2018-04-07T01:11:59.209Z,7.98
2018-04-07T01:14:25.524Z,7.74
2018-04-07T01:16:51.849Z,7.70
2018-04-07T01:19:20.121Z,7.00
2018-04-07T01:21:46.396Z,6.90
2018-04-07T01:24:12.773Z,6.81
2018-04-07T01:26:39.054Z,6.89
2018-04-07T01:29:05.325Z,7.05
2018-04-07T01:31:31.658Z,7.13
2018-04-07T01:33:57.933Z,7.26
2018-04-07T01:36:24.205Z,7.36
2018-04-07T01:38:50.518Z,7.55
2018-04-07T01:41:16.790Z,7.45
2018-04-07T01:43:43.080Z,7.57
2018-04-07T01:46:09.451Z,7.81
2018-04-07T01:48:35.725Z,7.85
2018-04-07T01:51:02.000Z,7.90
2018-04-07T01:53:28.521Z,8.02
2018-04-07T01:55:54.833Z,8.10
2018-04-07T01:58:21.126Z,8.00
2018-04-07T02:00:47.400Z,8.15
2018-04-07T02:03:13.737Z,8.21
2018-04-07T02:05:40.041Z,8.11
2018-04-07T02:08:06.442Z,8.12
2018-04-07T02:10:32.720Z,8.22
2018-04-07T02:12:59.004Z,8.15
2018-04-07T02:15:25.494Z,8.13
2018-04-07T02:17:51.825Z,8.14
2018-04-07T02:20:18.332Z,8.15
2018-04-07T02:22:44.608Z,8.28
2018-04-07T02:25:10.918Z,8.36
2018-04-07T02:27:38.887Z,8.33
2018-04-07T02:30:05.171Z,8.33
2018-04-07T02:32:31.446Z,8.37
2018-04-07T02:34:58.064Z,8.26
2018-04-07T02:37:24.438Z,8.43
2018-04-07T02:39:50.716Z,8.28
2018-04-07T02:42:17.006Z,7.84
2018-04-07T02:44:43.477Z,7.71
2018-04-07T02:47:09.762Z,7.58
2018-04-07T02:49:36.039Z,7.68
2018-04-07T02:52:02.785Z,7.78
2018-04-07T02:54:29.077Z,7.92
2018-04-07T02:56:55.414Z,7.92
2018-04-07T02:59:21.777Z,7.86
2018-04-07T03:01:48.122Z,7.99
2018-04-07T03:04:14.518Z,7.95
2018-04-07T03:06:41.052Z,7.94
2018-04-07T03:09:07.357Z,7.97
2018-04-07T03:11:33.733Z,8.02
2018-04-07T03:14:00.010Z,8.05
2018-04-07T03:16:26.288Z,8.04
2018-04-07T03:18:52.615Z,7.86
2018-04-07T03:21:18.891Z,7.68
2018-04-07T03:23:45.172Z,7.57
2018-04-07T03:26:11.662Z,7.79
2018-04-07T03:28:37.952Z,7.89
2018-04-07T03:31:04.326Z,7.99
2018-04-07T03:33:31.591Z,8.10
2018-04-07T03:35:57.866Z,8.06
2018-04-07T03:38:24.196Z,8.13
2018-04-07T03:40:52.998Z,7.94
2018-04-07T03:43:19.275Z,8.05
2018-04-07T03:45:45.602Z,8.10
2018-04-07T03:48:12.113Z,8.31
2018-04-07T03:50:38.445Z,8.33
2018-04-07T03:53:04.772Z,8.39
2018-04-07T03:55:31.043Z,8.29
2018-04-07T03:57:57.436Z,8.11
2018-04-07T04:00:23.867Z,7.69
2018-04-07T04:02:50.150Z,7.79
2018-04-07T04:05:16.469Z,7.86
2018-04-07T04:07:43.652Z,7.70
2018-04-07T04:10:09.950Z,7.66
2018-04-07T04:12:36.216Z,7.86
2018-04-07T04:15:02.567Z,8.02
2018-04-07T04:17:28.890Z,8.17
2018-04-07T04:19:56.104Z,7.92
2018-04-07T04:22:22.492Z,7.93
2018-04-07T04:24:48.768Z,7.92
2018-04-07T04:27:15.052Z,7.75
2018-04-07T04:29:41.397Z,7.94
2018-04-07T04:32:07.673Z,8.13
2018-04-07T04:34:33.964Z,8.32
2018-04-07T04:37:01.562Z,8.36
2018-04-07T04:39:27.996Z,8.47
2018-04-07T04:41:54.321Z,8.46
2018-04-07T04:44:20.610Z,8.52
2018-04-07T04:46:46.924Z,8.49
2018-04-07T04:49:13.262Z,8.58
2018-04-07T04:51:39.562Z,8.69
2018-04-07T04:54:05.881Z,8.59
2018-04-07T04:56:32.177Z,8.31
2018-04-07T04:58:58.462Z,8.14
2018-04-07T05:01:24.837Z,8.04
2018-04-07T05:03:51.119Z,7.99
2018-04-07T05:06:17.422Z,8.13
2018-04-07T05:08:46.469Z,8.34
2018-04-07T05:11:12.739Z,8.37
2018-04-07T05:13:39.005Z,8.19
2018-04-07T05:16:05.378Z,8.42
2018-04-07T05:18:31.696Z,8.54
2018-04-07T05:20:57.998Z,8.83
2018-04-07T05:23:24.808Z,9.14
2018-04-07T05:25:51.106Z,9.28
2018-04-07T05:28:17.394Z,9.45
2018-04-07T05:30:43.756Z,9.37
2018-04-07T05:33:10.025Z,9.42
2018-04-07T05:35:36.307Z,9.41
2018-04-07T05:38:02.858Z,9.40
2018-04-07T05:40:29.175Z,9.09
2018-04-07T05:42:55.461Z,9.22
2018-04-07T05:45:21.929Z,9.15
2018-04-07T05:47:48.234Z,9.24
2018-04-07T05:50:14.640Z,9.20
2018-04-07T05:52:40.928Z,9.27
2018-04-07T05:55:07.224Z,9.20
2018-04-07T05:57:33.589Z,9.20
2018-04-07T05:59:59.863Z,9.16
2018-04-07T06:02:26.146Z,9.09
2018-04-07T06:04:52.651Z,8.85
2018-04-07T06:07:18.923Z,8.67
2018-04-07T06:09:45.485Z,8.79
2018-04-07T06:12:11.819Z,9.12
2018-04-07T06:14:38.154Z,9.09
2018-04-07T06:17:04.489Z,9.10
2018-04-07T06:19:30.763Z,8.88
2018-04-07T06:21:57.044Z,8.94
2018-04-07T06:24:23.428Z,9.04
2018-04-07T06:26:49.717Z,9.17
2018-04-07T06:29:16.001Z,9.41
2018-04-07T06:31:42.456Z,9.44
2018-04-07T06:34:08.801Z,9.46
2018-04-07T06:36:35.086Z,9.42
2018-04-07T06:39:01.424Z,9.34
2018-04-07T06:41:27.803Z,9.54
2018-04-07T06:43:54.077Z,9.55
2018-04-07T06:46:20.401Z,9.39
2018-04-07T06:48:46.722Z,9.51
2018-04-07T06:51:13.005Z,9.72
2018-04-07T06:53:42.322Z,9.40
2018-04-07T06:56:08.832Z,9.50
2018-04-07T06:58:35.109Z,9.54
2018-04-07T07:01:01.484Z,9.54
2018-04-07T07:03:27.756Z,9.71
2018-04-07T07:05:54.040Z,9.99
2018-04-07T07:08:20.472Z,10.65
2018-04-07T07:10:52.902Z,11.06
2018-04-07T07:13:19.170Z,10.98
2018-04-07T07:15:45.384Z,11.30
2018-04-07T07:18:11.866Z,11.07
2018-04-07T07:20:38.261Z,10.95
2018-04-07T07:23:04.475Z,10.85
2018-04-07T07:25:30.713Z,10.81
2018-04-07T07:27:57.133Z,10.65
2018-04-07T07:30:23.331Z,10.65
2018-04-07T07:32:49.550Z,10.77
2018-04-07T07:35:15.789Z,10.91
2018-04-07T07:37:41.982Z,10.95
2018-04-07T07:40:08.185Z,10.93
2018-04-07T07:42:34.481Z,10.52
2018-04-07T07:45:00.688Z,10.50
2018-04-07T07:47:26.910Z,10.30
2018-04-07T07:49:53.342Z,10.11
2018-04-07T07:52:19.532Z,10.00
2018-04-07T07:54:45.768Z,10.03
2018-04-07T07:57:11.960Z,10.32
2018-04-07T07:59:38.161Z,10.65
2018-04-07T08:02:04.449Z,10.66
2018-04-07T08:04:30.696Z,10.81
2018-04-07T08:06:56.886Z,10.86
2018-04-07T08:09:23.636Z,11.09
2018-04-07T08:11:50.109Z,11.15
2018-04-07T08:14:16.306Z,11.43
2018-04-07T08:16:42.557Z,11.66
2018-04-07T08:19:08.767Z,11.72
2018-04-07T08:21:34.948Z,11.68
2018-04-07T08:24:01.245Z,11.86
2018-04-07T08:26:27.452Z,12.04
2018-04-07T08:28:53.842Z,12.16
2018-04-07T08:31:20.205Z,12.19
2018-04-07T08:33:46.498Z,12.40
2018-04-07T08:36:12.790Z,12.38
2018-04-07T08:38:39.326Z,12.47
2018-04-07T08:41:05.661Z,12.35
2018-04-07T08:43:32.852Z,12.68
2018-04-07T08:45:59.122Z,12.89
2018-04-07T08:48:25.439Z,13.25
2018-04-07T08:50:51.791Z,13.55
2018-04-07T08:53:18.197Z,13.84
2018-04-07T08:55:44.488Z,14.03
2018-04-07T08:58:11.073Z,14.09
2018-04-07T09:00:37.433Z,14.13
2018-04-07T09:03:03.752Z,14.45
2018-04-07T09:05:33.931Z,14.54
2018-04-07T09:08:00.291Z,14.85
2018-04-07T09:10:26.618Z,14.90
2018-04-07T09:12:53.021Z,14.79
2018-04-07T09:15:19.363Z,14.99
2018-04-07T09:17:45.656Z,15.32
2018-04-07T09:20:12.197Z,15.50
2018-04-07T09:22:38.497Z,15.61
2018-04-07T09:25:04.849Z,15.89
2018-04-07T09:27:31.147Z,16.07
2018-04-07T09:29:57.921Z,16.14
2018-04-07T09:32:24.267Z,16.05
2018-04-07T09:34:50.536Z,16.11
2018-04-07T09:37:16.912Z,16.18
2018-04-07T09:39:43.199Z,16.27
2018-04-07T09:42:09.531Z,16.17
2018-04-07T09:44:36.180Z,16.34
2018-04-07T09:47:02.503Z,15.98
2018-04-07T09:49:28.855Z,16.19
2018-04-07T09:51:55.137Z,15.81
2018-04-07T09:54:21.436Z,16.07
2018-04-07T09:56:47.813Z,16.39
2018-04-07T09:59:14.112Z,16.60
2018-04-07T10:01:41.291Z,16.83
2018-04-07T10:04:07.622Z,16.72
2018-04-07T10:06:33.914Z,16.76
2018-04-07T10:09:00.229Z,17.38
2018-04-07T10:11:27.598Z,17.76
2018-04-07T10:13:53.910Z,17.41
2018-04-07T10:16:20.206Z,17.62
2018-04-07T10:18:46.624Z,17.35
2018-04-07T10:21:12.920Z,17.73
2018-04-07T10:23:39.294Z,18.29
2018-04-07T10:26:05.651Z,17.85
2018-04-07T10:28:31.937Z,17.44
2018-04-07T10:30:58.221Z,17.51
2018-04-07T10:33:24.557Z,17.33
2018-04-07T10:35:50.875Z,17.07
2018-04-07T10:38:17.179Z,17.22
2018-04-07T10:40:43.619Z,17.62
2018-04-07T10:43:10.676Z,17.50
2018-04-07T10:45:36.956Z,17.48
2018-04-07T10:48:03.325Z,17.37
2018-04-07T10:50:29.620Z,17.26
2018-04-07T10:52:55.899Z,16.69
2018-04-07T10:55:22.228Z,16.71
2018-04-07T10:57:48.508Z,16.45
2018-04-07T11:00:14.794Z,16.68
2018-04-07T11:02:41.161Z,16.79
2018-04-07T11:05:07.482Z,16.92
2018-04-07T11:07:33.769Z,16.74
2018-04-07T11:10:00.272Z,16.98
2018-04-07T11:12:26.807Z,17.41
2018-04-07T11:14:53.202Z,17.19
2018-04-07T11:17:19.890Z,17.00
2018-04-07T11:19:46.185Z,16.75
2018-04-07T11:22:12.484Z,17.29
2018-04-07T11:24:39.021Z,17.08
2018-04-07T11:27:05.528Z,16.96
2018-04-07T11:29:32.038Z,17.02
2018-04-07T11:31:58.321Z,16.80
2018-04-07T11:34:24.689Z,16.96
2018-04-07T11:36:51.005Z,17.22
2018-04-07T11:39:17.290Z,17.57
2018-04-07T11:41:43.580Z,17.18
2018-04-07T11:44:10.108Z,17.26
2018-04-07T11:46:36.390Z,17.53
2018-04-07T11:49:02.728Z,17.68
2018-04-07T11:51:29.012Z,17.99
2018-04-07T11:53:55.359Z,18.15
2018-04-07T11:56:21.652Z,18.22
2018-04-07T11:58:48.013Z,18.22
2018-04-07T12:01:14.494Z,18.28
2018-04-07T12:03:40.780Z,18.19
2018-04-07T12:06:07.072Z,17.86
2018-04-07T12:08:33.576Z,17.70
2018-04-07T12:11:00.196Z,17.58
2018-04-07T12:13:27.687Z,16.99
2018-04-07T12:15:54.018Z,17.09
2018-04-07T12:18:20.318Z,17.15
2018-04-07T12:20:46.673Z,16.95
2018-04-07T12:23:12.946Z,16.49
2018-04-07T12:25:39.312Z,16.83
2018-04-07T12:28:05.720Z,17.00
2018-04-07T12:30:32.013Z,17.64
2018-04-07T12:32:59.310Z,17.92
2018-04-07T12:35:25.674Z,17.87
2018-04-07T12:37:52.018Z,17.87
2018-04-07T12:40:18.300Z,18.33
2018-04-07T12:42:44.622Z,18.92
2018-04-07T12:45:10.909Z,18.37
2018-04-07T12:47:37.292Z,18.28
2018-04-07T12:50:03.628Z,18.08
2018-04-07T12:52:29.909Z,17.72
2018-04-07T12:54:56.493Z,17.67
2018-04-07T12:57:23.395Z,17.85
2018-04-07T12:59:49.741Z,18.22
2018-04-07T13:02:16.052Z,18.09
2018-04-07T13:04:42.420Z,18.09
2018-04-07T13:07:08.801Z,17.98
2018-04-07T13:09:35.113Z,18.10
2018-04-07T13:12:01.382Z,18.06
2018-04-07T13:14:27.716Z,18.29
2018-04-07T13:16:54.060Z,18.43
2018-04-07T13:19:20.333Z,18.39
2018-04-07T13:21:46.660Z,18.57
2018-04-07T13:24:12.933Z,18.26
2018-04-07T13:26:39.213Z,17.90
2018-04-07T13:29:05.820Z,17.94
2018-04-07T13:31:32.115Z,18.77
2018-04-07T13:33:58.511Z,19.67
2018-04-07T13:36:24.802Z,19.95
2018-04-07T13:38:51.169Z,20.70
2018-04-07T13:41:17.457Z,21.12
2018-04-07T13:43:43.733Z,21.65
2018-04-07T13:46:13.102Z,21.57
2018-04-07T13:48:39.396Z,20.59
2018-04-07T13:51:05.723Z,20.74
2018-04-07T13:53:32.067Z,20.59
2018-04-07T13:55:58.384Z,19.70
2018-04-07T13:58:24.682Z,19.42
2018-04-07T14:00:51.126Z,19.78
2018-04-07T14:03:17.422Z,21.36
2018-04-07T14:05:43.719Z,20.25
2018-04-07T14:08:10.222Z,19.01
2018-04-07T14:10:36.541Z,19.08
2018-04-07T14:13:02.848Z,19.88
2018-04-07T14:15:29.137Z,19.78
2018-04-07T14:17:55.519Z,19.27
2018-04-07T14:20:21.803Z,19.11
2018-04-07T14:22:50.546Z,18.83
2018-04-07T14:25:16.933Z,18.69
2018-04-07T14:27:43.209Z,18.96
2018-04-07T14:30:09.600Z,19.54
2018-04-07T14:32:36.165Z,21.14
2018-04-07T14:35:02.465Z,21.70
2018-04-07T14:37:28.870Z,21.36
2018-04-07T14:39:55.158Z,20.94
2018-04-07T14:42:21.433Z,20.70
2018-04-07T14:44:47.786Z,19.97
2018-04-07T14:47:14.064Z,19.20
2018-04-07T14:49:40.465Z,18.75
2018-04-07T14:52:06.840Z,18.04
2018-04-07T14:54:33.135Z,18.13
2018-04-07T14:56:59.512Z,17.81
2018-04-07T14:59:25.806Z,17.19
2018-04-07T15:01:52.105Z,17.07
2018-04-07T15:04:21.554Z,16.80
2018-04-07T15:06:47.896Z,16.69
2018-04-07T15:09:14.229Z,16.49
2018-04-07T15:11:40.503Z,16.27
2018-04-07T15:14:06.842Z,15.97
2018-04-07T15:16:33.147Z,16.00
2018-04-07T15:19:02.769Z,15.89
2018-04-07T15:21:29.044Z,15.92
2018-04-07T15:23:55.336Z,15.99
2018-04-07T15:26:21.754Z,15.85
2018-04-07T15:28:48.068Z,15.85
2018-04-07T15:31:14.597Z,15.83
2018-04-07T15:33:41.114Z,15.80
2018-04-07T15:36:07.501Z,15.85
2018-04-07T15:38:33.907Z,15.88
2018-04-07T15:41:00.215Z,15.85
2018-04-07T15:43:26.576Z,15.79
2018-04-07T15:45:52.854Z,15.84
2018-04-07T15:48:19.374Z,15.87
2018-04-07T15:50:45.713Z,15.74
2018-04-07T15:53:12.074Z,15.77
2018-04-07T15:55:38.589Z,15.66
2018-04-07T15:58:04.943Z,15.59
2018-04-07T16:00:31.229Z,15.54
2018-04-07T16:02:57.509Z,15.43
2018-04-07T16:05:23.889Z,15.16
2018-04-07T16:07:55.883Z,15.08
2018-04-07T16:10:22.549Z,15.05
2018-04-07T16:12:48.901Z,15.01
2018-04-07T16:15:15.416Z,14.94
2018-04-07T16:17:41.716Z,14.95
2018-04-07T16:20:08.260Z,14.76
2018-04-07T16:22:34.719Z,14.65
2018-04-07T16:25:01.014Z,14.59
2018-04-07T16:27:27.324Z,14.21
2018-04-07T16:29:53.733Z,14.01
2018-04-07T16:32:20.084Z,13.92
2018-04-07T16:34:46.437Z,13.80
2018-04-07T16:37:13.417Z,13.83
2018-04-07T16:39:39.748Z,13.83
2018-04-07T16:42:06.117Z,13.87
2018-04-07T16:44:32.413Z,13.70
2018-04-07T16:46:58.755Z,13.68
2018-04-07T16:49:25.121Z,13.55
2018-04-07T16:51:51.414Z,13.59
2018-04-07T16:54:18.107Z,13.63
2018-04-07T16:56:44.450Z,13.22
2018-04-07T16:59:10.744Z,13.43
2018-04-07T17:01:37.965Z,13.26
2018-04-07T17:04:04.342Z,13.21
2018-04-07T17:06:30.631Z,13.00
2018-04-07T17:08:56.958Z,12.86
2018-04-07T17:11:23.408Z,12.70
2018-04-07T17:13:49.727Z,12.66
2018-04-07T17:16:16.016Z,12.56
2018-04-07T17:18:42.327Z,12.58
2018-04-07T17:21:08.681Z,12.60
2018-04-07T17:23:34.996Z,12.34
2018-04-07T17:26:01.362Z,12.33
2018-04-07T17:28:27.648Z,12.22
2018-04-07T17:30:53.943Z,11.99
2018-04-07T17:33:20.429Z,11.68
2018-04-07T17:35:46.823Z,11.60
2018-04-07T17:38:13.122Z,11.55
2018-04-07T17:40:39.416Z,11.33
2018-04-07T17:43:05.999Z,11.39
2018-04-07T17:45:32.280Z,11.38
2018-04-07T17:47:58.596Z,11.28
2018-04-07T17:50:25.021Z,11.22
2018-04-07T17:52:51.366Z,11.32
2018-04-07T17:55:17.736Z,11.31
2018-04-07T17:57:44.034Z,11.34
2018-04-07T18:00:10.316Z,11.25
2018-04-07T18:02:36.689Z,10.96
2018-04-07T18:05:03.031Z,10.89
2018-04-07T18:07:29.305Z,10.96
2018-04-07T18:09:55.644Z,10.97
2018-04-07T18:12:22.066Z,10.96
2018-04-07T18:14:48.352Z,10.97
2018-04-07T18:17:14.693Z,10.88
2018-04-07T18:19:41.074Z,10.96
2018-04-07T18:22:07.379Z,10.89
2018-04-07T18:24:34.560Z,10.94
2018-04-07T18:27:00.901Z,10.91
2018-04-07T18:29:27.210Z,10.68
2018-04-07T18:31:53.494Z,11.05
2018-04-07T18:34:19.881Z,10.93
2018-04-07T18:36:46.255Z,10.97
2018-04-07T18:39:12.535Z,10.97
2018-04-07T18:41:38.865Z,11.06
2018-04-07T18:44:05.294Z,11.05
2018-04-07T18:46:31.625Z,11.19
2018-04-07T18:48:57.896Z,11.12
2018-04-07T18:51:24.284Z,11.06
2018-04-07T18:53:50.648Z,10.89
2018-04-07T18:56:16.959Z,10.68
2018-04-07T18:58:43.390Z,10.14
2018-04-07T19:01:09.814Z,10.06
2018-04-07T19:03:36.098Z,10.15
2018-04-07T19:06:02.465Z,10.23
2018-04-07T19:08:28.818Z,10.29
2018-04-07T19:10:55.261Z,10.27
2018-04-07T19:13:23.416Z,10.15
2018-04-07T19:15:49.697Z,10.10
2018-04-07T19:18:16.062Z,10.23
2018-04-07T19:20:42.348Z,10.14
2018-04-07T19:23:08.627Z,10.03
2018-04-07T19:25:34.981Z,9.87
2018-04-07T19:28:01.355Z,9.77
2018-04-07T19:30:27.736Z,9.93
2018-04-07T19:32:54.126Z,9.60
2018-04-07T19:35:20.473Z,9.69
2018-04-07T19:37:46.834Z,9.96
2018-04-07T19:40:13.265Z,9.97
2018-04-07T19:42:39.544Z,9.97
2018-04-07T19:45:05.829Z,9.66
2018-04-07T19:47:33.017Z,9.72
2018-04-07T19:49:59.287Z,9.76
2018-04-07T19:52:25.568Z,9.65
2018-04-07T19:54:51.997Z,9.67
2018-04-07T19:57:18.286Z,9.65
2018-04-07T19:59:44.580Z,9.64
2018-04-07T20:02:10.939Z,9.66
2018-04-07T20:04:37.226Z,9.58
2018-04-07T20:07:03.536Z,9.51
2018-04-07T20:09:29.954Z,9.48
2018-04-07T20:11:56.448Z,9.50
2018-04-07T20:14:23.047Z,9.24
2018-04-07T20:16:49.430Z,9.34
2018-04-07T20:19:15.783Z,8.77
2018-04-07T20:21:42.072Z,8.61
2018-04-07T20:24:08.461Z,8.75
2018-04-07T20:26:34.728Z,8.81
2018-04-07T20:29:01.012Z,8.72
2018-04-07T20:31:27.347Z,8.84
2018-04-07T20:33:53.630Z,8.63
2018-04-07T20:36:20.092Z,8.72
2018-04-07T20:38:46.376Z,8.89
2018-04-07T20:41:12.652Z,8.84
2018-04-07T20:43:38.968Z,9.00
2018-04-07T20:46:05.249Z,8.72
2018-04-07T20:48:31.532Z,8.47
2018-04-07T20:50:57.850Z,8.19
2018-04-07T20:53:24.121Z,8.10
2018-04-07T20:55:50.425Z,8.34
2018-04-07T20:58:16.801Z,8.48
2018-04-07T21:00:43.088Z,8.51
2018-04-07T21:03:09.370Z,8.68
2018-04-07T21:05:35.700Z,8.67
2018-04-07T21:08:01.987Z,8.61
2018-04-07T21:10:32.270Z,8.47
2018-04-07T21:12:58.679Z,8.32
2018-04-07T21:15:25.018Z,7.81
2018-04-07T21:17:51.450Z,7.71
2018-04-07T21:20:17.727Z,7.80
2018-04-07T21:22:44.018Z,8.08
2018-04-07T21:25:13.372Z,8.18
2018-04-07T21:27:39.658Z,8.25
2018-04-07T21:30:05.963Z,8.22
2018-04-07T21:32:32.364Z,8.23
2018-04-07T21:34:58.668Z,8.11
2018-04-07T21:37:24.949Z,8.00
2018-04-07T21:39:51.404Z,7.68
2018-04-07T21:42:17.862Z,7.88
2018-04-07T21:44:44.145Z,8.07
2018-04-07T21:47:10.420Z,8.11
2018-04-07T21:49:36.772Z,8.17
2018-04-07T21:52:03.056Z,8.26
2018-04-07T21:54:29.365Z,8.39
2018-04-07T21:56:55.757Z,8.35
2018-04-07T21:59:22.042Z,8.38
2018-04-07T22:01:48.411Z,8.44
2018-04-07T22:04:14.704Z,8.41
2018-04-07T22:06:41.025Z,8.46
2018-04-07T22:09:07.414Z,8.44
2018-04-07T22:14:17.711Z,8.27
2018-04-07T22:16:44.149Z,8.04
2018-04-07T22:19:10.465Z,8.19
2018-04-07T22:21:36.939Z,8.37
2018-04-07T22:24:03.221Z,8.41
2018-04-07T22:26:29.556Z,8.37
2018-04-07T22:28:55.893Z,7.73
2018-04-07T22:31:22.220Z,7.55
2018-04-07T22:33:48.535Z,7.73
2018-04-07T22:36:14.988Z,7.64
2018-04-07T22:38:42.357Z,7.74
2018-04-07T22:41:08.630Z,7.81
2018-04-07T22:43:34.945Z,8.02
2018-04-07T22:46:03.195Z,8.23
2018-04-07T22:48:29.474Z,8.22
2018-04-07T22:50:55.816Z,8.33
2018-04-07T22:53:22.876Z,8.29
2018-04-07T22:55:49.238Z,8.38
2018-04-07T22:58:15.532Z,8.39
2018-04-07T23:00:41.919Z,8.36
2018-04-07T23:03:08.233Z,8.32
2018-04-07T23:05:34.536Z,8.31
2018-04-07T23:08:00.869Z,8.34
2018-04-07T23:10:27.189Z,8.17
2018-04-07T23:12:53.513Z,7.72
2018-04-07T23:15:19.797Z,7.86
2018-04-07T23:17:46.178Z,7.94
2018-04-07T23:20:12.461Z,7.79
2018-04-07T23:22:38.742Z,7.49
2018-04-07T23:25:05.112Z,7.19
2018-04-07T23:27:31.371Z,7.08
2018-04-07T23:29:57.645Z,7.27
2018-04-07T23:32:24.020Z,7.17
2018-04-07T23:34:50.301Z,7.28
2018-04-07T23:37:16.610Z,7.43
2018-04-07T23:39:43.005Z,7.61
2018-04-07T23:42:09.281Z,7.50
2018-04-07T23:44:35.704Z,7.55
2018-04-07T23:47:01.985Z,7.64
2018-04-07T23:49:28.270Z,7.67
2018-04-07T23:51:54.610Z,7.63
2018-04-07T23:54:20.893Z,7.66
2018-04-07T23:56:47.427Z,7.60
2018-04-07T23:59:13.734Z,7.58
